sensor_id;sensor_type;location;lat;lon;timestamp;P1;durP1;ratioP1;P2;durP2;ratioP2
44995;SDS011;30729;49.486;10.792;2022-11-12T00:00:15;14.20;;;8.18;;
44995;SDS011;30729;49.486;10.792;2022-11-12T00:02:41;13.80;;;8.38;;
44995;SDS011;30729;49.486;10.792;2022-11-12T00:05:06;15.48;;;7.80;;
44995;SDS011;30729;49.486;10.792;2022-11-12T00:07:32;13.55;;;8.15;;
44995;SDS011;30729;49.486;10.792;2022-11-12T00:09:57;15.15;;;9.48;;
44995;SDS011;30729;49.486;10.792;2022-11-12T00:12:23;13.55;;;8.40;;
44995;SDS011;30729;49.486;10.792;2022-11-12T00:14:48;14.68;;;8.85;;
44995;SDS011;30729;49.486;10.792;2022-11-12T00:17:13;16.92;;;9.40;;
44995;SDS011;30729;49.486;10.792;2022-11-12T00:19:39;17.33;;;9.38;;
44995;SDS011;30729;49.486;10.792;2022-11-12T00:22:04;15.65;;;8.95;;
44995;SDS011;30729;49.486;10.792;2022-11-12T00:24:29;20.35;;;10.43;;
44995;SDS011;30729;49.486;10.792;2022-11-12T00:26:55;19.60;;;9.43;;
44995;SDS011;30729;49.486;10.792;2022-11-12T00:29:20;19.73;;;10.45;;
44995;SDS011;30729;49.486;10.792;2022-11-12T00:31:45;16.80;;;10.00;;
44995;SDS011;30729;49.486;10.792;2022-11-12T00:34:11;18.33;;;9.77;;
44995;SDS011;30729;49.486;10.792;2022-11-12T00:36:36;15.18;;;8.90;;
44995;SDS011;30729;49.486;10.792;2022-11-12T00:39:02;15.40;;;8.98;;
44995;SDS011;30729;49.486;10.792;2022-11-12T00:41:28;15.32;;;8.02;;
44995;SDS011;30729;49.486;10.792;2022-11-12T00:43:53;14.02;;;8.43;;
44995;SDS011;30729;49.486;10.792;2022-11-12T00:46:18;19.58;;;10.25;;
44995;SDS011;30729;49.486;10.792;2022-11-12T00:48:44;20.10;;;10.15;;
44995;SDS011;30729;49.486;10.792;2022-11-12T00:51:09;19.40;;;9.60;;
44995;SDS011;30729;49.486;10.792;2022-11-12T00:53:34;18.65;;;9.90;;
44995;SDS011;30729;49.486;10.792;2022-11-12T00:56:01;18.80;;;9.75;;
44995;SDS011;30729;49.486;10.792;2022-11-12T00:58:31;22.27;;;11.23;;
44995;SDS011;30729;49.486;10.792;2022-11-12T01:01:03;26.02;;;11.77;;
44995;SDS011;30729;49.486;10.792;2022-11-12T01:03:30;24.73;;;12.68;;
44995;SDS011;30729;49.486;10.792;2022-11-12T01:06:00;30.15;;;12.98;;
44995;SDS011;30729;49.486;10.792;2022-11-12T01:08:28;24.77;;;11.13;;
44995;SDS011;30729;49.486;10.792;2022-11-12T01:10:54;24.88;;;13.70;;
44995;SDS011;30729;49.486;10.792;2022-11-12T01:13:19;20.88;;;11.77;;
44995;SDS011;30729;49.486;10.792;2022-11-12T01:15:45;25.15;;;12.13;;
44995;SDS011;30729;49.486;10.792;2022-11-12T01:18:10;22.80;;;12.05;;
44995;SDS011;30729;49.486;10.792;2022-11-12T01:20:36;23.95;;;10.52;;
44995;SDS011;30729;49.486;10.792;2022-11-12T01:23:03;21.40;;;11.43;;
44995;SDS011;30729;49.486;10.792;2022-11-12T01:25:29;19.48;;;10.93;;
44995;SDS011;30729;49.486;10.792;2022-11-12T01:27:54;22.25;;;9.82;;
44995;SDS011;30729;49.486;10.792;2022-11-12T01:30:20;18.60;;;9.45;;
44995;SDS011;30729;49.486;10.792;2022-11-12T01:32:45;16.55;;;9.23;;
44995;SDS011;30729;49.486;10.792;2022-11-12T01:35:10;17.60;;;8.63;;
44995;SDS011;30729;49.486;10.792;2022-11-12T01:37:36;16.35;;;7.72;;
44995;SDS011;30729;49.486;10.792;2022-11-12T01:40:01;14.60;;;8.02;;
44995;SDS011;30729;49.486;10.792;2022-11-12T01:42:28;16.48;;;9.45;;
44995;SDS011;30729;49.486;10.792;2022-11-12T01:44:55;17.60;;;9.15;;
44995;SDS011;30729;49.486;10.792;2022-11-12T01:47:22;15.68;;;8.95;;
44995;SDS011;30729;49.486;10.792;2022-11-12T01:52:33;16.92;;;9.68;;
44995;SDS011;30729;49.486;10.792;2022-11-12T01:55:08;13.63;;;7.85;;
44995;SDS011;30729;49.486;10.792;2022-11-12T01:57:43;15.27;;;8.80;;
44995;SDS011;30729;49.486;10.792;2022-11-12T02:02:38;12.88;;;7.07;;
44995;SDS011;30729;49.486;10.792;2022-11-12T02:05:06;15.60;;;8.50;;
44995;SDS011;30729;49.486;10.792;2022-11-12T02:07:34;16.15;;;8.43;;
44995;SDS011;30729;49.486;10.792;2022-11-12T02:10:02;14.38;;;7.35;;
44995;SDS011;30729;49.486;10.792;2022-11-12T02:12:28;12.13;;;6.75;;
44995;SDS011;30729;49.486;10.792;2022-11-12T02:15:12;15.70;;;8.20;;
44995;SDS011;30729;49.486;10.792;2022-11-12T02:17:38;15.98;;;7.82;;
44995;SDS011;30729;49.486;10.792;2022-11-12T02:20:04;13.55;;;7.10;;
44995;SDS011;30729;49.486;10.792;2022-11-12T02:22:33;14.38;;;7.60;;
44995;SDS011;30729;49.486;10.792;2022-11-12T02:24:58;16.77;;;7.57;;
44995;SDS011;30729;49.486;10.792;2022-11-12T02:27:24;14.07;;;7.28;;
44995;SDS011;30729;49.486;10.792;2022-11-12T02:29:49;14.43;;;8.02;;
44995;SDS011;30729;49.486;10.792;2022-11-12T02:32:15;18.40;;;8.02;;
44995;SDS011;30729;49.486;10.792;2022-11-12T02:34:40;13.50;;;8.32;;
44995;SDS011;30729;49.486;10.792;2022-11-12T02:37:06;15.65;;;8.13;;
44995;SDS011;30729;49.486;10.792;2022-11-12T02:39:32;14.55;;;7.53;;
44995;SDS011;30729;49.486;10.792;2022-11-12T02:41:57;13.13;;;7.30;;
44995;SDS011;30729;49.486;10.792;2022-11-12T02:44:23;14.18;;;7.95;;
44995;SDS011;30729;49.486;10.792;2022-11-12T02:46:49;17.27;;;9.23;;
44995;SDS011;30729;49.486;10.792;2022-11-12T02:49:14;15.15;;;8.35;;
44995;SDS011;30729;49.486;10.792;2022-11-12T02:51:40;17.63;;;10.40;;
44995;SDS011;30729;49.486;10.792;2022-11-12T02:54:06;22.98;;;10.60;;
44995;SDS011;30729;49.486;10.792;2022-11-12T02:56:31;21.73;;;10.35;;
44995;SDS011;30729;49.486;10.792;2022-11-12T02:58:56;19.63;;;10.02;;
44995;SDS011;30729;49.486;10.792;2022-11-12T03:01:22;20.45;;;9.75;;
44995;SDS011;30729;49.486;10.792;2022-11-12T03:03:48;18.58;;;8.77;;
44995;SDS011;30729;49.486;10.792;2022-11-12T03:06:13;20.88;;;10.40;;
44995;SDS011;30729;49.486;10.792;2022-11-12T03:08:39;21.48;;;10.73;;
44995;SDS011;30729;49.486;10.792;2022-11-12T03:11:05;19.75;;;9.27;;
44995;SDS011;30729;49.486;10.792;2022-11-12T03:13:31;22.05;;;10.10;;
44995;SDS011;30729;49.486;10.792;2022-11-12T03:15:57;20.98;;;9.68;;
44995;SDS011;30729;49.486;10.792;2022-11-12T03:18:24;14.55;;;7.88;;
44995;SDS011;30729;49.486;10.792;2022-11-12T03:20:50;21.52;;;9.07;;
44995;SDS011;30729;49.486;10.792;2022-11-12T03:23:16;15.45;;;8.02;;
44995;SDS011;30729;49.486;10.792;2022-11-12T03:25:41;19.25;;;9.10;;
44995;SDS011;30729;49.486;10.792;2022-11-12T03:28:07;24.27;;;10.13;;
44995;SDS011;30729;49.486;10.792;2022-11-12T03:30:36;18.33;;;8.88;;
44995;SDS011;30729;49.486;10.792;2022-11-12T03:33:03;26.10;;;8.35;;
44995;SDS011;30729;49.486;10.792;2022-11-12T03:35:31;13.95;;;7.13;;
44995;SDS011;30729;49.486;10.792;2022-11-12T03:37:57;17.67;;;7.10;;
44995;SDS011;30729;49.486;10.792;2022-11-12T03:40:24;17.55;;;7.40;;
44995;SDS011;30729;49.486;10.792;2022-11-12T03:42:50;15.82;;;7.32;;
44995;SDS011;30729;49.486;10.792;2022-11-12T03:45:16;12.85;;;6.88;;
44995;SDS011;30729;49.486;10.792;2022-11-12T03:47:47;15.07;;;7.68;;
44995;SDS011;30729;49.486;10.792;2022-11-12T03:50:14;16.08;;;8.05;;
44995;SDS011;30729;49.486;10.792;2022-11-12T03:52:48;13.93;;;7.32;;
44995;SDS011;30729;49.486;10.792;2022-11-12T03:55:16;14.15;;;7.47;;
44995;SDS011;30729;49.486;10.792;2022-11-12T03:57:43;12.55;;;7.07;;
44995;SDS011;30729;49.486;10.792;2022-11-12T04:00:10;13.02;;;7.30;;
44995;SDS011;30729;49.486;10.792;2022-11-12T04:02:36;15.75;;;8.55;;
44995;SDS011;30729;49.486;10.792;2022-11-12T04:05:03;13.55;;;6.78;;
44995;SDS011;30729;49.486;10.792;2022-11-12T04:07:49;16.50;;;7.32;;
44995;SDS011;30729;49.486;10.792;2022-11-12T04:10:39;16.02;;;7.43;;
44995;SDS011;30729;49.486;10.792;2022-11-12T04:13:04;16.60;;;8.05;;
44995;SDS011;30729;49.486;10.792;2022-11-12T04:15:48;15.80;;;8.18;;
44995;SDS011;30729;49.486;10.792;2022-11-12T04:21:17;13.48;;;7.22;;
44995;SDS011;30729;49.486;10.792;2022-11-12T04:24:01;12.80;;;6.80;;
44995;SDS011;30729;49.486;10.792;2022-11-12T04:26:27;18.98;;;6.93;;
44995;SDS011;30729;49.486;10.792;2022-11-12T04:28:52;13.52;;;7.05;;
44995;SDS011;30729;49.486;10.792;2022-11-12T04:31:36;12.68;;;7.00;;
44995;SDS011;30729;49.486;10.792;2022-11-12T04:34:01;12.63;;;7.00;;
44995;SDS011;30729;49.486;10.792;2022-11-12T04:36:45;14.32;;;6.68;;
44995;SDS011;30729;49.486;10.792;2022-11-12T04:39:11;14.00;;;7.57;;
44995;SDS011;30729;49.486;10.792;2022-11-12T04:41:36;16.95;;;7.35;;
44995;SDS011;30729;49.486;10.792;2022-11-12T04:44:20;13.45;;;6.90;;
44995;SDS011;30729;49.486;10.792;2022-11-12T04:47:04;14.43;;;8.02;;
44995;SDS011;30729;49.486;10.792;2022-11-12T04:49:29;15.88;;;8.52;;
44995;SDS011;30729;49.486;10.792;2022-11-12T04:51:55;14.57;;;7.65;;
44995;SDS011;30729;49.486;10.792;2022-11-12T04:54:29;16.37;;;8.07;;
44995;SDS011;30729;49.486;10.792;2022-11-12T04:56:54;15.15;;;8.90;;
44995;SDS011;30729;49.486;10.792;2022-11-12T04:59:19;18.63;;;9.90;;
44995;SDS011;30729;49.486;10.792;2022-11-12T05:01:45;19.83;;;8.70;;
44995;SDS011;30729;49.486;10.792;2022-11-12T05:04:10;18.00;;;10.00;;
44995;SDS011;30729;49.486;10.792;2022-11-12T05:06:35;22.95;;;9.05;;
44995;SDS011;30729;49.486;10.792;2022-11-12T05:09:16;16.08;;;8.80;;
44995;SDS011;30729;49.486;10.792;2022-11-12T05:11:42;16.40;;;9.07;;
44995;SDS011;30729;49.486;10.792;2022-11-12T05:14:08;16.88;;;8.25;;
44995;SDS011;30729;49.486;10.792;2022-11-12T05:16:33;15.68;;;8.55;;
44995;SDS011;30729;49.486;10.792;2022-11-12T05:18:59;16.92;;;7.72;;
44995;SDS011;30729;49.486;10.792;2022-11-12T05:21:25;16.98;;;7.47;;
44995;SDS011;30729;49.486;10.792;2022-11-12T05:24:09;16.95;;;7.20;;
44995;SDS011;30729;49.486;10.792;2022-11-12T05:26:34;14.77;;;6.88;;
44995;SDS011;30729;49.486;10.792;2022-11-12T05:29:00;16.33;;;7.38;;
44995;SDS011;30729;49.486;10.792;2022-11-12T05:31:25;20.63;;;7.50;;
44995;SDS011;30729;49.486;10.792;2022-11-12T05:33:50;18.85;;;7.70;;
44995;SDS011;30729;49.486;10.792;2022-11-12T05:36:16;15.00;;;7.43;;
44995;SDS011;30729;49.486;10.792;2022-11-12T05:38:41;14.13;;;7.13;;
44995;SDS011;30729;49.486;10.792;2022-11-12T05:41:07;13.63;;;7.25;;
44995;SDS011;30729;49.486;10.792;2022-11-12T05:43:32;15.65;;;7.60;;
44995;SDS011;30729;49.486;10.792;2022-11-12T05:45:57;12.77;;;7.80;;
44995;SDS011;30729;49.486;10.792;2022-11-12T05:48:23;12.57;;;7.65;;
44995;SDS011;30729;49.486;10.792;2022-11-12T05:50:48;10.90;;;5.45;;
44995;SDS011;30729;49.486;10.792;2022-11-12T05:53:14;10.68;;;5.30;;
44995;SDS011;30729;49.486;10.792;2022-11-12T05:55:40;10.75;;;5.43;;
44995;SDS011;30729;49.486;10.792;2022-11-12T05:58:05;12.02;;;5.95;;
44995;SDS011;30729;49.486;10.792;2022-11-12T06:00:31;11.30;;;6.20;;
44995;SDS011;30729;49.486;10.792;2022-11-12T06:03:03;17.30;;;6.80;;
44995;SDS011;30729;49.486;10.792;2022-11-12T06:05:30;12.52;;;6.35;;
44995;SDS011;30729;49.486;10.792;2022-11-12T06:07:56;11.23;;;5.85;;
44995;SDS011;30729;49.486;10.792;2022-11-12T06:10:21;11.32;;;6.35;;
44995;SDS011;30729;49.486;10.792;2022-11-12T06:12:46;13.38;;;7.25;;
44995;SDS011;30729;49.486;10.792;2022-11-12T06:15:12;11.77;;;7.07;;
44995;SDS011;30729;49.486;10.792;2022-11-12T06:17:37;15.15;;;7.57;;
44995;SDS011;30729;49.486;10.792;2022-11-12T06:20:03;11.55;;;6.25;;
44995;SDS011;30729;49.486;10.792;2022-11-12T06:22:28;13.82;;;6.57;;
44995;SDS011;30729;49.486;10.792;2022-11-12T06:24:54;10.23;;;5.82;;
44995;SDS011;30729;49.486;10.792;2022-11-12T06:27:20;12.93;;;7.28;;
44995;SDS011;30729;49.486;10.792;2022-11-12T06:29:45;12.45;;;7.72;;
44995;SDS011;30729;49.486;10.792;2022-11-12T06:32:10;14.48;;;7.90;;
44995;SDS011;30729;49.486;10.792;2022-11-12T06:34:36;14.38;;;8.15;;
44995;SDS011;30729;49.486;10.792;2022-11-12T06:37:02;18.25;;;7.90;;
44995;SDS011;30729;49.486;10.792;2022-11-12T06:39:27;12.80;;;7.50;;
44995;SDS011;30729;49.486;10.792;2022-11-12T06:41:52;17.45;;;8.48;;
44995;SDS011;30729;49.486;10.792;2022-11-12T06:44:18;20.13;;;9.00;;
44995;SDS011;30729;49.486;10.792;2022-11-12T06:46:44;15.65;;;9.10;;
44995;SDS011;30729;49.486;10.792;2022-11-12T06:49:09;17.25;;;8.60;;
44995;SDS011;30729;49.486;10.792;2022-11-12T06:51:35;25.95;;;7.80;;
44995;SDS011;30729;49.486;10.792;2022-11-12T06:54:00;14.95;;;7.25;;
44995;SDS011;30729;49.486;10.792;2022-11-12T06:56:26;17.77;;;8.20;;
44995;SDS011;30729;49.486;10.792;2022-11-12T06:58:51;14.50;;;7.70;;
44995;SDS011;30729;49.486;10.792;2022-11-12T07:01:16;14.23;;;7.55;;
44995;SDS011;30729;49.486;10.792;2022-11-12T07:03:42;16.60;;;8.48;;
44995;SDS011;30729;49.486;10.792;2022-11-12T07:06:09;44.10;;;39.67;;
44995;SDS011;30729;49.486;10.792;2022-11-12T07:08:36;19.92;;;17.77;;
44995;SDS011;30729;49.486;10.792;2022-11-12T07:11:03;18.23;;;8.88;;
44995;SDS011;30729;49.486;10.792;2022-11-12T07:13:30;14.45;;;7.03;;
44995;SDS011;30729;49.486;10.792;2022-11-12T07:15:59;11.85;;;6.47;;
44995;SDS011;30729;49.486;10.792;2022-11-12T07:18:26;10.70;;;5.85;;
44995;SDS011;30729;49.486;10.792;2022-11-12T07:21:05;17.90;;;6.40;;
44995;SDS011;30729;49.486;10.792;2022-11-12T07:23:34;11.30;;;6.57;;
44995;SDS011;30729;49.486;10.792;2022-11-12T07:26:01;10.88;;;6.15;;
44995;SDS011;30729;49.486;10.792;2022-11-12T07:28:26;9.38;;;6.07;;
44995;SDS011;30729;49.486;10.792;2022-11-12T07:30:56;8.38;;;4.25;;
44995;SDS011;30729;49.486;10.792;2022-11-12T07:33:22;8.20;;;4.50;;
44995;SDS011;30729;49.486;10.792;2022-11-12T07:35:48;11.10;;;6.72;;
44995;SDS011;30729;49.486;10.792;2022-11-12T07:38:13;15.88;;;7.63;;
44995;SDS011;30729;49.486;10.792;2022-11-12T07:40:39;10.07;;;6.78;;
44995;SDS011;30729;49.486;10.792;2022-11-12T07:43:04;11.15;;;6.28;;
44995;SDS011;30729;49.486;10.792;2022-11-12T07:45:29;11.48;;;6.15;;
44995;SDS011;30729;49.486;10.792;2022-11-12T07:47:57;10.18;;;6.03;;
44995;SDS011;30729;49.486;10.792;2022-11-12T07:50:23;15.10;;;7.40;;
44995;SDS011;30729;49.486;10.792;2022-11-12T07:52:48;14.52;;;7.88;;
44995;SDS011;30729;49.486;10.792;2022-11-12T07:55:14;14.85;;;8.15;;
44995;SDS011;30729;49.486;10.792;2022-11-12T07:57:39;15.32;;;7.60;;
44995;SDS011;30729;49.486;10.792;2022-11-12T08:00:05;15.57;;;8.60;;
44995;SDS011;30729;49.486;10.792;2022-11-12T08:02:31;18.73;;;10.30;;
44995;SDS011;30729;49.486;10.792;2022-11-12T08:04:57;17.60;;;9.88;;
44995;SDS011;30729;49.486;10.792;2022-11-12T08:07:22;15.52;;;8.55;;
44995;SDS011;30729;49.486;10.792;2022-11-12T08:09:47;17.65;;;9.20;;
44995;SDS011;30729;49.486;10.792;2022-11-12T08:12:13;20.70;;;10.18;;
44995;SDS011;30729;49.486;10.792;2022-11-12T08:14:39;19.80;;;12.65;;
44995;SDS011;30729;49.486;10.792;2022-11-12T08:17:04;24.27;;;11.25;;
44995;SDS011;30729;49.486;10.792;2022-11-12T08:19:29;27.85;;;18.73;;
44995;SDS011;30729;49.486;10.792;2022-11-12T08:21:55;19.83;;;10.52;;
44995;SDS011;30729;49.486;10.792;2022-11-12T08:24:20;17.40;;;8.95;;
44995;SDS011;30729;49.486;10.792;2022-11-12T08:26:45;16.13;;;9.45;;
44995;SDS011;30729;49.486;10.792;2022-11-12T08:29:11;81.07;;;54.22;;
44995;SDS011;30729;49.486;10.792;2022-11-12T08:31:36;22.13;;;12.43;;
44995;SDS011;30729;49.486;10.792;2022-11-12T08:34:02;16.98;;;8.35;;
44995;SDS011;30729;49.486;10.792;2022-11-12T08:36:36;16.10;;;8.97;;
44995;SDS011;30729;49.486;10.792;2022-11-12T08:39:02;14.27;;;7.07;;
44995;SDS011;30729;49.486;10.792;2022-11-12T08:41:27;13.85;;;8.30;;
44995;SDS011;30729;49.486;10.792;2022-11-12T08:43:53;19.48;;;8.25;;
44995;SDS011;30729;49.486;10.792;2022-11-12T08:46:18;14.02;;;7.60;;
44995;SDS011;30729;49.486;10.792;2022-11-12T08:48:43;14.13;;;7.25;;
44995;SDS011;30729;49.486;10.792;2022-11-12T08:51:09;15.57;;;7.00;;
44995;SDS011;30729;49.486;10.792;2022-11-12T08:53:34;19.67;;;7.57;;
44995;SDS011;30729;49.486;10.792;2022-11-12T08:55:59;15.85;;;7.10;;
44995;SDS011;30729;49.486;10.792;2022-11-12T08:58:25;14.30;;;7.65;;
44995;SDS011;30729;49.486;10.792;2022-11-12T09:00:51;15.20;;;7.60;;
44995;SDS011;30729;49.486;10.792;2022-11-12T09:03:18;15.55;;;7.43;;
44995;SDS011;30729;49.486;10.792;2022-11-12T09:05:46;16.48;;;8.43;;
44995;SDS011;30729;49.486;10.792;2022-11-12T09:08:13;15.85;;;8.13;;
44995;SDS011;30729;49.486;10.792;2022-11-12T09:10:43;15.88;;;8.93;;
44995;SDS011;30729;49.486;10.792;2022-11-12T09:13:09;20.27;;;8.10;;
44995;SDS011;30729;49.486;10.792;2022-11-12T09:15:34;16.38;;;9.15;;
44995;SDS011;30729;49.486;10.792;2022-11-12T09:18:04;18.92;;;10.20;;
44995;SDS011;30729;49.486;10.792;2022-11-12T09:20:32;19.63;;;10.57;;
44995;SDS011;30729;49.486;10.792;2022-11-12T09:22:58;19.90;;;10.55;;
44995;SDS011;30729;49.486;10.792;2022-11-12T09:25:28;19.08;;;10.10;;
44995;SDS011;30729;49.486;10.792;2022-11-12T09:27:53;19.25;;;11.13;;
44995;SDS011;30729;49.486;10.792;2022-11-12T09:30:19;20.55;;;11.48;;
44995;SDS011;30729;49.486;10.792;2022-11-12T09:32:45;20.83;;;10.63;;
44995;SDS011;30729;49.486;10.792;2022-11-12T09:35:10;18.27;;;11.05;;
44995;SDS011;30729;49.486;10.792;2022-11-12T09:37:36;18.83;;;10.80;;
44995;SDS011;30729;49.486;10.792;2022-11-12T09:40:02;19.33;;;11.15;;
44995;SDS011;30729;49.486;10.792;2022-11-12T09:42:29;18.15;;;10.20;;
44995;SDS011;30729;49.486;10.792;2022-11-12T09:44:55;18.27;;;10.48;;
44995;SDS011;30729;49.486;10.792;2022-11-12T09:50:35;19.50;;;11.55;;
44995;SDS011;30729;49.486;10.792;2022-11-12T09:52:46;17.77;;;10.02;;
44995;SDS011;30729;49.486;10.792;2022-11-12T09:55:20;19.95;;;10.90;;
44995;SDS011;30729;49.486;10.792;2022-11-12T09:58:11;18.00;;;9.50;;
44995;SDS011;30729;49.486;10.792;2022-11-12T10:00:37;20.92;;;11.00;;
44995;SDS011;30729;49.486;10.792;2022-11-12T10:03:07;20.15;;;12.13;;
44995;SDS011;30729;49.486;10.792;2022-11-12T10:05:54;20.02;;;11.43;;
44995;SDS011;30729;49.486;10.792;2022-11-12T10:25:41;15.15;;;8.98;;
44995;SDS011;30729;49.486;10.792;2022-11-12T10:28:22;14.88;;;8.32;;
44995;SDS011;30729;49.486;10.792;2022-11-12T10:30:52;16.40;;;8.43;;
44995;SDS011;30729;49.486;10.792;2022-11-12T10:33:21;15.00;;;8.63;;
44995;SDS011;30729;49.486;10.792;2022-11-12T10:35:47;20.00;;;9.32;;
44995;SDS011;30729;49.486;10.792;2022-11-12T10:38:13;13.27;;;8.02;;
44995;SDS011;30729;49.486;10.792;2022-11-12T10:40:47;14.98;;;8.27;;
44995;SDS011;30729;49.486;10.792;2022-11-12T10:45:41;15.40;;;8.73;;
44995;SDS011;30729;49.486;10.792;2022-11-12T10:48:20;13.75;;;8.25;;
44995;SDS011;30729;49.486;10.792;2022-11-12T10:50:48;13.95;;;8.70;;
44995;SDS011;30729;49.486;10.792;2022-11-12T10:53:16;13.77;;;8.25;;
44995;SDS011;30729;49.486;10.792;2022-11-12T10:55:59;13.30;;;7.78;;
44995;SDS011;30729;49.486;10.792;2022-11-12T10:58:29;14.82;;;8.75;;
44995;SDS011;30729;49.486;10.792;2022-11-12T11:03:32;15.93;;;9.45;;
44995;SDS011;30729;49.486;10.792;2022-11-12T11:06:16;17.05;;;8.93;;
44995;SDS011;30729;49.486;10.792;2022-11-12T11:09:07;14.27;;;9.05;;
44995;SDS011;30729;49.486;10.792;2022-11-12T11:11:48;13.80;;;8.40;;
44995;SDS011;30729;49.486;10.792;2022-11-12T11:16:50;14.50;;;9.10;;
44995;SDS011;30729;49.486;10.792;2022-11-12T11:19:17;15.73;;;9.15;;
44995;SDS011;30729;49.486;10.792;2022-11-12T11:35:18;19.60;;;10.50;;
44995;SDS011;30729;49.486;10.792;2022-11-12T11:40:38;16.45;;;10.15;;
44995;SDS011;30729;49.486;10.792;2022-11-12T11:56:27;16.23;;;9.93;;
44995;SDS011;30729;49.486;10.792;2022-11-12T12:14:29;17.15;;;10.98;;
44995;SDS011;30729;49.486;10.792;2022-11-12T12:22:37;17.60;;;11.05;;
44995;SDS011;30729;49.486;10.792;2022-11-12T12:25:10;20.30;;;10.95;;
44995;SDS011;30729;49.486;10.792;2022-11-12T12:28:25;17.58;;;10.68;;
44995;SDS011;30729;49.486;10.792;2022-11-12T12:30:37;18.15;;;11.07;;
44995;SDS011;30729;49.486;10.792;2022-11-12T12:36:04;19.52;;;11.52;;
44995;SDS011;30729;49.486;10.792;2022-11-12T12:38:36;20.38;;;11.65;;
44995;SDS011;30729;49.486;10.792;2022-11-12T12:41:20;19.60;;;11.27;;
44995;SDS011;30729;49.486;10.792;2022-11-12T12:46:27;18.88;;;11.45;;
44995;SDS011;30729;49.486;10.792;2022-11-12T12:48:55;18.55;;;11.23;;
44995;SDS011;30729;49.486;10.792;2022-11-12T12:51:23;17.38;;;10.63;;
44995;SDS011;30729;49.486;10.792;2022-11-12T12:53:53;18.50;;;11.25;;
44995;SDS011;30729;49.486;10.792;2022-11-12T12:58:47;20.20;;;10.75;;
44995;SDS011;30729;49.486;10.792;2022-11-12T13:01:32;18.73;;;11.57;;
44995;SDS011;30729;49.486;10.792;2022-11-12T13:04:07;16.70;;;10.82;;
44995;SDS011;30729;49.486;10.792;2022-11-12T13:16:56;19.08;;;11.43;;
44995;SDS011;30729;49.486;10.792;2022-11-12T13:19:26;17.95;;;11.25;;
44995;SDS011;30729;49.486;10.792;2022-11-12T13:30:08;17.75;;;10.98;;
44995;SDS011;30729;49.486;10.792;2022-11-12T13:32:35;16.73;;;10.38;;
44995;SDS011;30729;49.486;10.792;2022-11-12T13:40:45;18.27;;;11.68;;
44995;SDS011;30729;49.486;10.792;2022-11-12T13:51:12;16.88;;;10.13;;
44995;SDS011;30729;49.486;10.792;2022-11-12T13:53:41;15.20;;;9.80;;
44995;SDS011;30729;49.486;10.792;2022-11-12T13:56:08;19.20;;;11.95;;
44995;SDS011;30729;49.486;10.792;2022-11-12T13:58:35;17.42;;;11.68;;
44995;SDS011;30729;49.486;10.792;2022-11-12T14:01:04;18.45;;;11.25;;
44995;SDS011;30729;49.486;10.792;2022-11-12T14:03:40;16.75;;;10.60;;
44995;SDS011;30729;49.486;10.792;2022-11-12T14:06:18;17.15;;;10.23;;
44995;SDS011;30729;49.486;10.792;2022-11-12T14:14:28;18.80;;;10.85;;
44995;SDS011;30729;49.486;10.792;2022-11-12T14:22:55;17.27;;;10.20;;
44995;SDS011;30729;49.486;10.792;2022-11-12T14:25:22;18.23;;;11.02;;
44995;SDS011;30729;49.486;10.792;2022-11-12T14:27:50;21.52;;;13.80;;
44995;SDS011;30729;49.486;10.792;2022-11-12T14:30:18;25.17;;;15.30;;
44995;SDS011;30729;49.486;10.792;2022-11-12T14:32:53;24.83;;;14.57;;
44995;SDS011;30729;49.486;10.792;2022-11-12T14:37:51;21.98;;;13.70;;
44995;SDS011;30729;49.486;10.792;2022-11-12T14:40:34;26.65;;;16.42;;
44995;SDS011;30729;49.486;10.792;2022-11-12T14:43:14;24.75;;;14.88;;
44995;SDS011;30729;49.486;10.792;2022-11-12T14:45:50;21.63;;;13.55;;
44995;SDS011;30729;49.486;10.792;2022-11-12T14:48:17;26.35;;;17.95;;
44995;SDS011;30729;49.486;10.792;2022-11-12T14:50:44;46.42;;;25.10;;
44995;SDS011;30729;49.486;10.792;2022-11-12T14:53:14;26.02;;;16.13;;
44995;SDS011;30729;49.486;10.792;2022-11-12T14:56:03;25.85;;;15.48;;
44995;SDS011;30729;49.486;10.792;2022-11-12T14:58:31;25.85;;;14.88;;
44995;SDS011;30729;49.486;10.792;2022-11-12T15:00:57;24.45;;;14.88;;
44995;SDS011;30729;49.486;10.792;2022-11-12T15:03:41;22.83;;;14.25;;
44995;SDS011;30729;49.486;10.792;2022-11-12T15:06:07;24.48;;;13.82;;
44995;SDS011;30729;49.486;10.792;2022-11-12T15:08:35;23.38;;;13.90;;
44995;SDS011;30729;49.486;10.792;2022-11-12T15:13:43;25.55;;;14.68;;
44995;SDS011;30729;49.486;10.792;2022-11-12T15:16:09;30.48;;;17.02;;
44995;SDS011;30729;49.486;10.792;2022-11-12T15:18:40;26.75;;;15.07;;
44995;SDS011;30729;49.486;10.792;2022-11-12T15:23:49;27.92;;;17.85;;
44995;SDS011;30729;49.486;10.792;2022-11-12T15:26:31;29.42;;;17.05;;
44995;SDS011;30729;49.486;10.792;2022-11-12T15:29:00;29.73;;;17.77;;
44995;SDS011;30729;49.486;10.792;2022-11-12T15:31:42;23.98;;;14.38;;
44995;SDS011;30729;49.486;10.792;2022-11-12T15:36:51;22.42;;;13.23;;
44995;SDS011;30729;49.486;10.792;2022-11-12T15:39:17;23.17;;;15.02;;
44995;SDS011;30729;49.486;10.792;2022-11-12T15:41:44;21.05;;;13.98;;
44995;SDS011;30729;49.486;10.792;2022-11-12T15:44:09;19.95;;;13.57;;
44995;SDS011;30729;49.486;10.792;2022-11-12T15:46:36;24.83;;;14.80;;
44995;SDS011;30729;49.486;10.792;2022-11-12T15:49:02;23.58;;;14.63;;
44995;SDS011;30729;49.486;10.792;2022-11-12T15:51:35;22.35;;;14.05;;
44995;SDS011;30729;49.486;10.792;2022-11-12T15:54:01;20.73;;;13.50;;
44995;SDS011;30729;49.486;10.792;2022-11-12T15:56:26;23.50;;;14.38;;
44995;SDS011;30729;49.486;10.792;2022-11-12T15:58:52;27.48;;;15.95;;
44995;SDS011;30729;49.486;10.792;2022-11-12T16:01:17;25.45;;;16.13;;
44995;SDS011;30729;49.486;10.792;2022-11-12T16:03:42;24.17;;;15.80;;
44995;SDS011;30729;49.486;10.792;2022-11-12T16:06:11;30.67;;;16.65;;
44995;SDS011;30729;49.486;10.792;2022-11-12T16:08:36;24.50;;;15.88;;
44995;SDS011;30729;49.486;10.792;2022-11-12T16:11:02;24.65;;;14.13;;
44995;SDS011;30729;49.486;10.792;2022-11-12T16:13:47;21.90;;;14.55;;
44995;SDS011;30729;49.486;10.792;2022-11-12T16:16:13;32.88;;;17.05;;
44995;SDS011;30729;49.486;10.792;2022-11-12T16:18:38;34.45;;;22.02;;
44995;SDS011;30729;49.486;10.792;2022-11-12T16:21:04;36.20;;;23.65;;
44995;SDS011;30729;49.486;10.792;2022-11-12T16:23:29;30.63;;;18.73;;
44995;SDS011;30729;49.486;10.792;2022-11-12T16:25:54;25.75;;;16.95;;
44995;SDS011;30729;49.486;10.792;2022-11-12T16:28:20;29.00;;;19.08;;
44995;SDS011;30729;49.486;10.792;2022-11-12T16:30:46;28.17;;;18.58;;
44995;SDS011;30729;49.486;10.792;2022-11-12T16:33:12;31.50;;;19.73;;
44995;SDS011;30729;49.486;10.792;2022-11-12T16:35:38;24.48;;;17.10;;
44995;SDS011;30729;49.486;10.792;2022-11-12T16:38:14;22.95;;;15.13;;
44995;SDS011;30729;49.486;10.792;2022-11-12T16:40:41;36.53;;;21.10;;
44995;SDS011;30729;49.486;10.792;2022-11-12T16:43:07;42.53;;;27.58;;
44995;SDS011;30729;49.486;10.792;2022-11-12T16:45:42;43.42;;;26.98;;
44995;SDS011;30729;49.486;10.792;2022-11-12T16:50:44;43.80;;;26.58;;
44995;SDS011;30729;49.486;10.792;2022-11-12T16:53:10;39.97;;;25.63;;